Time,TemperatureF,DewpointF,PressureIn,WindDirection,WindDirectionDegrees,WindSpeedMPH,WindSpeedGustMPH,Humidity,HourlyPrecipIn,Conditions,Clouds,dailyrainin,SolarRadiationWatts/m^2,SoftwareType,DateUTC
2013-07-18 00:02:00,80.0,63.0,-100.00,SE,131,6.0,9.0,56,0.00,,,0.00,0.000000,,2013-07-18 05:02:00,
2013-07-18 00:32:00,78.0,62.0,-100.00,SE,137,6.0,10.0,59,0.00,,,0.00,0.000000,,2013-07-18 05:32:00,
2013-07-18 00:42:00,78.0,62.0,-100.00,SE,137,6.0,10.0,59,0.00,,,0.00,0.000000,,2013-07-18 05:42:00,
2013-07-18 00:52:00,78.0,62.0,-100.00,SE,137,6.0,10.0,59,0.00,,,0.00,0.000000,,2013-07-18 05:52:00,
2013-07-18 01:01:00,78.0,62.0,-100.00,SE,137,6.0,10.0,59,0.00,,,0.00,0.000000,,2013-07-18 06:01:00,
2013-07-18 01:32:00,78.0,63.0,-100.00,SE,128,5.0,9.0,61,0.00,,,0.00,0.000000,,2013-07-18 06:32:00,
2013-07-18 01:43:00,78.0,63.0,-100.00,SE,128,5.0,9.0,61,0.00,,,0.00,0.000000,,2013-07-18 06:43:00,
2013-07-18 01:52:00,78.0,63.0,-100.00,SE,128,5.0,9.0,61,0.00,,,0.00,0.000000,,2013-07-18 06:52:00,
2013-07-18 02:01:00,78.0,63.0,-100.00,SE,128,5.0,9.0,61,0.00,,,0.00,0.000000,,2013-07-18 07:01:00,
2013-07-18 06:32:00,73.0,63.0,-100.00,South,173,2.0,4.0,72,-99.99,,,0.00,0.000000,,2013-07-18 11:32:00,
2013-07-18 06:43:00,73.0,63.0,-100.00,South,173,2.0,4.0,72,-99.99,,,0.00,0.000000,,2013-07-18 11:43:00,
2013-07-18 06:52:00,73.0,63.0,-100.00,South,173,2.0,4.0,72,-99.99,,,0.00,0.000000,,2013-07-18 11:52:00,
2013-07-18 07:02:00,73.0,63.0,-100.00,South,173,2.0,4.0,72,-99.99,,,0.00,0.000000,,2013-07-18 12:02:00,
2013-07-18 07:33:00,74.0,64.0,-100.00,SW,225,0.0,5.0,72,0.00,,,0.00,27.000000,,2013-07-18 12:33:00,
2013-07-18 07:42:00,74.0,64.0,-100.00,SW,225,0.0,5.0,72,0.00,,,0.00,27.000000,,2013-07-18 12:42:00,
2013-07-18 07:52:00,74.0,64.0,-100.00,SW,225,0.0,5.0,72,0.00,,,0.00,27.000000,,2013-07-18 12:52:00,
2013-07-18 08:01:00,74.0,64.0,-100.00,SW,225,0.0,5.0,72,0.00,,,0.00,27.000000,,2013-07-18 13:01:00,
2013-07-18 08:33:00,80.0,71.0,-100.00,South,184,2.0,4.0,73,0.00,,,0.00,152.000000,,2013-07-18 13:33:00,
2013-07-18 08:43:00,80.0,71.0,-100.00,South,184,2.0,4.0,73,0.00,,,0.00,152.000000,,2013-07-18 13:43:00,
2013-07-18 08:53:00,80.0,71.0,-100.00,South,184,2.0,4.0,73,0.00,,,0.00,152.000000,,2013-07-18 13:53:00,
2013-07-18 09:02:00,80.0,71.0,-100.00,South,184,2.0,4.0,73,0.00,,,0.00,152.000000,,2013-07-18 14:02:00,
2013-07-18 09:33:00,84.0,67.0,-100.00,WSW,253,3.0,5.0,56,0.00,,,0.00,416.000000,,2013-07-18 14:33:00,
2013-07-18 09:43:00,84.0,67.0,-100.00,WSW,253,3.0,5.0,56,0.00,,,0.00,416.000000,,2013-07-18 14:43:00,
2013-07-18 09:53:00,84.0,67.0,-100.00,WSW,253,3.0,5.0,56,0.00,,,0.00,416.000000,,2013-07-18 14:53:00,
2013-07-18 10:01:00,84.0,67.0,-100.00,WSW,253,3.0,5.0,56,0.00,,,0.00,416.000000,,2013-07-18 15:01:00,
2013-07-18 10:32:00,84.0,67.0,-100.00,NNW,342,4.0,7.0,56,0.00,,,0.00,639.000000,,2013-07-18 15:32:00,
2013-07-18 10:43:00,84.0,67.0,-100.00,NNW,342,4.0,7.0,56,0.00,,,0.00,639.000000,,2013-07-18 15:43:00,
2013-07-18 10:53:00,84.0,67.0,-100.00,NNW,342,4.0,7.0,56,0.00,,,0.00,639.000000,,2013-07-18 15:53:00,
2013-07-18 11:01:00,84.0,67.0,-100.00,NNW,342,4.0,7.0,56,0.00,,,0.00,639.000000,,2013-07-18 16:01:00,
2013-07-18 11:32:00,84.0,69.0,-100.00,SW,232,2.0,5.0,61,0.00,,,0.00,330.000000,,2013-07-18 16:32:00,
2013-07-18 11:42:00,84.0,69.0,-100.00,SW,232,2.0,5.0,61,0.00,,,0.00,330.000000,,2013-07-18 16:42:00,
2013-07-18 11:52:00,84.0,69.0,-100.00,SW,232,2.0,5.0,61,0.00,,,0.00,330.000000,,2013-07-18 16:52:00,
2013-07-18 12:02:00,84.0,69.0,-100.00,SW,232,2.0,5.0,61,0.00,,,0.00,330.000000,,2013-07-18 17:02:00,
2013-07-18 12:33:00,84.0,63.0,-100.00,SSW,199,6.0,9.0,49,0.00,,,0.00,984.000000,,2013-07-18 17:33:00,
2013-07-18 12:43:00,84.0,63.0,-100.00,SSW,199,6.0,9.0,49,0.00,,,0.00,984.000000,,2013-07-18 17:43:00,
2013-07-18 12:52:00,84.0,63.0,-100.00,SSW,199,6.0,9.0,49,0.00,,,0.00,984.000000,,2013-07-18 17:52:00,
2013-07-18 13:01:00,84.0,63.0,-100.00,SSW,199,6.0,9.0,49,0.00,,,0.00,984.000000,,2013-07-18 18:01:00,
2013-07-18 13:33:00,89.0,65.0,-100.00,SSE,154,4.0,11.0,45,0.00,,,0.00,1229.000000,,2013-07-18 18:33:00,
2013-07-18 13:43:00,89.0,65.0,-100.00,SSE,154,4.0,11.0,45,0.00,,,0.00,1229.000000,,2013-07-18 18:43:00,
2013-07-18 13:52:00,89.0,65.0,-100.00,SSE,154,4.0,11.0,45,0.00,,,0.00,1229.000000,,2013-07-18 18:52:00,
2013-07-18 14:02:00,89.0,65.0,-100.00,SSE,154,4.0,11.0,45,0.00,,,0.00,1229.000000,,2013-07-18 19:02:00,
2013-07-18 14:32:00,90.0,62.0,-100.00,SSW,198,5.0,13.0,40,0.00,,,0.00,1231.000000,,2013-07-18 19:32:00,
2013-07-18 14:43:00,90.0,62.0,-100.00,SSW,198,5.0,13.0,40,0.00,,,0.00,1231.000000,,2013-07-18 19:43:00,
2013-07-18 14:53:00,90.0,62.0,-100.00,SSW,198,5.0,13.0,40,0.00,,,0.00,1231.000000,,2013-07-18 19:53:00,
2013-07-18 15:02:00,90.0,62.0,-100.00,SSW,198,5.0,13.0,40,0.00,,,0.00,1231.000000,,2013-07-18 20:02:00,
2013-07-18 15:32:00,89.0,62.0,-100.00,NW,310,7.0,11.0,41,0.00,,,0.00,920.000000,,2013-07-18 20:32:00,
2013-07-18 15:43:00,89.0,62.0,-100.00,NW,310,7.0,11.0,41,0.00,,,0.00,920.000000,,2013-07-18 20:43:00,
2013-07-18 15:52:00,89.0,62.0,-100.00,NW,310,7.0,11.0,41,0.00,,,0.00,920.000000,,2013-07-18 20:52:00,
2013-07-18 16:01:00,89.0,62.0,-100.00,NW,310,7.0,11.0,41,0.00,,,0.00,920.000000,,2013-07-18 21:01:00,
2013-07-18 16:32:00,91.0,65.0,-100.00,NE,37,4.0,9.0,42,0.00,,,0.00,617.000000,,2013-07-18 21:32:00,
2013-07-18 16:43:00,91.0,65.0,-100.00,NE,37,4.0,9.0,42,0.00,,,0.00,617.000000,,2013-07-18 21:43:00,
2013-07-18 16:52:00,91.0,65.0,-100.00,NE,37,4.0,9.0,42,0.00,,,0.00,617.000000,,2013-07-18 21:52:00,
2013-07-18 17:01:00,91.0,65.0,-100.00,NE,37,4.0,9.0,42,0.00,,,0.00,617.000000,,2013-07-18 22:01:00,
2013-07-18 17:32:00,90.0,59.0,-100.00,North,353,5.0,10.0,36,0.00,,,0.00,822.000000,,2013-07-18 22:32:00,
2013-07-18 17:43:00,90.0,59.0,-100.00,North,353,5.0,10.0,36,0.00,,,0.00,822.000000,,2013-07-18 22:43:00,
2013-07-18 17:53:00,90.0,59.0,-100.00,North,353,5.0,10.0,36,0.00,,,0.00,822.000000,,2013-07-18 22:53:00,
2013-07-18 18:02:00,90.0,59.0,-100.00,North,353,5.0,10.0,36,0.00,,,0.00,822.000000,,2013-07-18 23:02:00,
2013-07-18 18:32:00,90.0,62.0,-100.00,North,350,5.0,8.0,40,0.00,,,0.00,460.000000,,2013-07-18 23:32:00,
2013-07-18 18:42:00,90.0,62.0,-100.00,North,350,5.0,8.0,40,0.00,,,0.00,460.000000,,2013-07-18 23:42:00,
2013-07-18 18:52:00,90.0,62.0,-100.00,North,350,5.0,8.0,40,0.00,,,0.00,460.000000,,2013-07-18 23:52:00,
2013-07-18 19:01:00,90.0,62.0,-100.00,North,350,5.0,8.0,40,0.00,,,0.00,460.000000,,2013-07-19 00:01:00,
2013-07-18 19:32:00,72.0,58.0,-100.00,SE,125,20.0,50.0,62,0.56,,,0.56,217.000000,,2013-07-19 00:32:00,
2013-07-18 19:43:00,72.0,58.0,-100.00,SE,125,20.0,50.0,62,0.56,,,0.56,217.000000,,2013-07-19 00:43:00,
2013-07-18 19:52:00,72.0,58.0,-100.00,SE,125,20.0,50.0,62,0.56,,,0.56,217.000000,,2013-07-19 00:52:00,
2013-07-18 20:01:00,72.0,58.0,-100.00,SE,125,20.0,50.0,62,0.56,,,0.56,217.000000,,2013-07-19 01:01:00,
2013-07-18 20:32:00,72.0,68.0,-100.00,South,183,4.0,48.0,87,0.08,,,0.64,14.000000,,2013-07-19 01:32:00,
2013-07-18 20:42:00,72.0,68.0,-100.00,South,183,4.0,48.0,87,0.08,,,0.64,14.000000,,2013-07-19 01:42:00,
2013-07-18 20:52:00,72.0,68.0,-100.00,South,183,4.0,48.0,87,0.08,,,0.64,14.000000,,2013-07-19 01:52:00,
2013-07-18 21:02:00,72.0,68.0,-100.00,South,183,4.0,48.0,87,0.08,,,0.64,14.000000,,2013-07-19 02:02:00,
2013-07-18 21:32:00,74.0,65.0,-100.00,SE,134,5.0,10.0,74,0.00,,,0.64,7.000000,,2013-07-19 02:32:00,
2013-07-18 21:43:00,74.0,65.0,-100.00,SE,134,5.0,10.0,74,0.00,,,0.64,7.000000,,2013-07-19 02:43:00,
2013-07-18 21:52:00,74.0,65.0,-100.00,SE,134,5.0,10.0,74,0.00,,,0.64,7.000000,,2013-07-19 02:52:00,
2013-07-18 22:01:00,74.0,65.0,-100.00,SE,134,5.0,10.0,74,0.00,,,0.64,7.000000,,2013-07-19 03:01:00,
2013-07-18 22:32:00,74.0,66.0,-100.00,ESE,119,8.0,15.0,76,0.00,,,0.64,0.000000,,2013-07-19 03:32:00,
2013-07-18 22:43:00,74.0,66.0,-100.00,ESE,119,8.0,15.0,76,0.00,,,0.64,0.000000,,2013-07-19 03:43:00,
2013-07-18 22:52:00,74.0,66.0,-100.00,ESE,119,8.0,15.0,76,0.00,,,0.64,0.000000,,2013-07-19 03:52:00,
2013-07-18 23:02:00,74.0,66.0,-100.00,ESE,119,8.0,15.0,76,0.00,,,0.64,0.000000,,2013-07-19 04:02:00,
2013-07-18 23:33:00,72.0,66.0,-100.00,SE,132,9.0,13.0,81,0.00,,,0.64,0.000000,,2013-07-19 04:33:00,
2013-07-18 23:44:00,72.0,66.0,-100.00,SE,132,9.0,13.0,81,0.00,,,0.64,0.000000,,2013-07-19 04:44:00,
2013-07-18 23:52:00,72.0,66.0,-100.00,SE,132,9.0,13.0,81,0.00,,,0.64,0.000000,,2013-07-19 04:52:00,